GMME/RBA METAR and TAF weather

Enter ICAO airport designator
Station Type Date Time Source
GMME METAR 2021/06/23 00:00 UTC NOAA

GMME 230000Z 00000KT 8000 SCT020 16/14 Q1018 NOSIG


Station Type Date Time Source
GMME Decoded METAR 2021/06/23 00:00 UTC NOAA

Rabat-Sale, Morocco (GMME) 34-03N 006-46W 75M
Jun 22, 2021 - 08:00 PM EDT / 2021.06.23 0000 UTC
Wind: Calm:0
Visibility: 4 mile(s):0
Sky conditions: partly cloudy
Temperature: 60 F (16 C)
Dew Point: 57 F (14 C)
Relative Humidity: 87%
Pressure (altimeter): 30.06 in. Hg (1018 hPa)
ob: GMME 230000Z 00000KT 8000 SCT020 16/14 Q1018 NOSIG
cycle: 0

Station Type Date Time Source
GMME TAF 2021/06/22 18:18 UTC NOAA

TAF GMME 221700Z 2218/2324 34010KT 8000 SCT020
TEMPO 2301/2307 VRB02KT

Example: see airport list